Time,TemperatureF,DewpointF,PressureIn,WindDirection,WindDirectionDegrees,WindSpeedMPH,WindSpeedGustMPH,Humidity,HourlyPrecipIn,Conditions,Clouds,dailyrainin,SoftwareType,DateUTC
2013-02-03 00:00:00,42.3,35.6,30.12,West,270,0.0,1.0,77,0.00,,,0.00,meteohub,2013-02-03 05:00:00,
2013-02-03 00:01:00,42.3,35.6,30.13,West,270,0.0,1.0,77,0.00,,,0.00,meteohub,2013-02-03 05:01:00,
2013-02-03 00:07:00,42.3,35.6,30.12,South,180,0.0,1.0,77,0.00,,,0.00,meteohub,2013-02-03 05:07:00,
2013-02-03 00:12:00,42.3,36.0,30.12,NW,315,0.0,1.0,78,0.00,,,0.00,meteohub,2013-02-03 05:12:00,
2013-02-03 00:17:00,42.3,36.0,30.11,East,90,0.0,1.0,78,0.00,,,0.00,meteohub,2013-02-03 05:17:00,
2013-02-03 00:22:00,42.3,36.0,30.10,NW,315,0.0,1.0,78,0.00,,,0.00,meteohub,2013-02-03 05:22:00,
2013-02-03 00:27:00,42.3,36.0,30.10,West,270,0.0,1.0,78,0.00,,,0.00,meteohub,2013-02-03 05:27:00,
2013-02-03 00:32:00,42.3,36.0,30.10,West,270,0.0,2.0,78,0.00,,,0.00,meteohub,2013-02-03 05:32:00,
2013-02-03 00:37:00,42.3,36.0,30.09,West,270,0.0,2.0,78,0.00,,,0.00,meteohub,2013-02-03 05:37:00,
2013-02-03 00:43:00,42.3,36.0,30.09,SW,225,0.0,0.0,78,0.00,,,0.00,meteohub,2013-02-03 05:43:00,
2013-02-03 00:48:00,42.3,36.0,30.09,SW,225,0.0,0.0,78,0.00,,,0.00,meteohub,2013-02-03 05:48:00,
2013-02-03 00:54:00,42.3,36.0,30.09,SW,225,0.0,0.0,78,0.00,,,0.00,meteohub,2013-02-03 05:54:00,
2013-02-03 00:59:00,42.1,35.8,30.09,West,270,0.0,0.0,78,0.00,,,0.00,meteohub,2013-02-03 05:59:00,
2013-02-03 01:04:00,42.1,35.8,30.08,West,270,0.0,0.0,78,0.00,,,0.00,meteohub,2013-02-03 06:04:00,
2013-02-03 01:09:00,42.1,35.8,30.09,West,270,0.0,0.0,78,0.00,,,0.00,meteohub,2013-02-03 06:09:00,
2013-02-03 01:14:00,42.1,35.8,30.09,West,270,0.0,0.0,78,0.00,,,0.00,meteohub,2013-02-03 06:14:00,
2013-02-03 01:19:00,42.1,35.8,30.08,West,270,0.0,0.0,78,0.00,,,0.00,meteohub,2013-02-03 06:19:00,
2013-02-03 01:25:00,42.1,35.8,30.08,NW,315,0.0,0.0,78,0.00,,,0.00,meteohub,2013-02-03 06:25:00,
2013-02-03 01:30:00,42.1,35.8,30.08,West,270,0.0,0.0,78,0.00,,,0.00,meteohub,2013-02-03 06:30:00,
2013-02-03 01:35:00,42.1,35.8,30.07,NW,315,0.0,0.0,78,0.00,,,0.00,meteohub,2013-02-03 06:35:00,
2013-02-03 01:40:00,42.1,35.8,30.07,NW,315,0.0,0.0,78,0.00,,,0.00,meteohub,2013-02-03 06:40:00,
2013-02-03 01:45:00,42.1,35.8,30.07,West,270,0.0,0.0,78,0.00,,,0.00,meteohub,2013-02-03 06:45:00,
2013-02-03 01:50:00,41.9,35.6,30.06,West,270,0.0,0.0,78,0.00,,,0.00,meteohub,2013-02-03 06:50:00,
2013-02-03 01:55:00,41.9,35.2,30.06,West,270,0.0,0.0,77,0.00,,,0.00,meteohub,2013-02-03 06:55:00,
2013-02-03 02:00:00,41.9,35.2,30.06,West,270,0.0,0.0,77,0.00,,,0.00,meteohub,2013-02-03 07:00:00,
2013-02-03 02:06:00,41.9,35.6,30.06,West,270,0.0,0.0,78,0.00,,,0.00,meteohub,2013-02-03 07:06:00,
2013-02-03 02:11:00,41.9,35.6,30.07,West,270,0.0,0.0,78,0.00,,,0.00,meteohub,2013-02-03 07:11:00,
2013-02-03 02:16:00,41.9,35.2,30.06,West,270,0.0,0.0,77,0.00,,,0.00,meteohub,2013-02-03 07:16:00,
2013-02-03 02:21:00,41.9,35.2,30.06,West,270,0.0,0.0,77,0.00,,,0.00,meteohub,2013-02-03 07:21:00,
2013-02-03 02:26:00,41.9,35.2,30.06,West,270,0.0,0.0,77,0.00,,,0.00,meteohub,2013-02-03 07:26:00,
2013-02-03 02:31:00,41.9,35.2,30.06,West,270,0.0,0.0,77,0.00,,,0.00,meteohub,2013-02-03 07:31:00,
2013-02-03 02:36:00,41.9,35.6,30.07,West,270,0.0,0.0,78,0.00,,,0.00,meteohub,2013-02-03 07:36:00,
2013-02-03 02:41:00,41.9,35.6,30.07,West,270,0.0,0.0,78,0.00,,,0.00,meteohub,2013-02-03 07:41:00,
2013-02-03 02:46:00,41.7,35.4,30.06,WNW,293,0.0,0.0,78,0.00,,,0.00,meteohub,2013-02-03 07:46:00,
2013-02-03 02:51:00,41.7,35.4,30.06,West,270,0.0,0.0,78,0.00,,,0.00,meteohub,2013-02-03 07:51:00,
2013-02-03 02:56:00,41.7,35.4,30.06,West,270,0.0,0.0,78,0.00,,,0.00,meteohub,2013-02-03 07:56:00,
2013-02-03 03:02:00,41.5,35.2,30.05,West,270,0.0,0.0,78,0.00,,,0.00,meteohub,2013-02-03 08:02:00,
2013-02-03 03:07:00,41.5,35.2,30.05,West,270,0.0,0.0,78,0.00,,,0.00,meteohub,2013-02-03 08:07:00,
2013-02-03 03:12:00,41.4,35.1,30.05,West,270,0.0,0.0,78,0.00,,,0.00,meteohub,2013-02-03 08:12:00,
2013-02-03 03:17:00,41.2,34.9,30.04,WNW,293,0.0,0.0,78,0.00,,,0.00,meteohub,2013-02-03 08:17:00,
2013-02-03 03:22:00,41.0,34.7,30.04,NW,315,0.0,0.0,78,0.00,,,0.00,meteohub,2013-02-03 08:22:00,
2013-02-03 03:27:00,40.8,34.9,30.04,NW,315,0.0,0.0,79,0.00,,,0.00,meteohub,2013-02-03 08:27:00,
2013-02-03 03:32:00,40.3,34.3,30.04,NW,315,0.0,0.0,79,0.00,,,0.00,meteohub,2013-02-03 08:32:00,
2013-02-03 03:38:00,39.7,33.8,30.04,NW,315,0.0,0.0,79,0.00,,,0.00,meteohub,2013-02-03 08:38:00,
2013-02-03 03:43:00,39.4,33.4,30.04,NW,315,0.0,0.0,79,0.00,,,0.00,meteohub,2013-02-03 08:43:00,
2013-02-03 03:48:00,39.0,33.4,30.03,NW,315,0.0,0.0,80,0.00,,,0.00,meteohub,2013-02-03 08:48:00,
2013-02-03 03:53:00,38.5,33.1,30.04,NW,315,0.0,0.0,81,0.00,,,0.00,meteohub,2013-02-03 08:53:00,
2013-02-03 03:58:00,38.1,32.7,30.03,NW,315,0.0,0.0,81,0.00,,,0.00,meteohub,2013-02-03 08:58:00,
2013-02-03 04:03:00,37.8,32.7,30.03,NW,315,0.0,0.0,82,0.00,,,0.00,meteohub,2013-02-03 09:03:00,
2013-02-03 04:08:00,37.4,32.7,30.03,NW,315,0.0,0.0,83,0.00,,,0.00,meteohub,2013-02-03 09:08:00,
2013-02-03 04:13:00,37.2,31.3,30.03,SW,225,0.0,0.0,79,0.00,,,0.00,meteohub,2013-02-03 09:13:00,
2013-02-03 04:18:00,37.0,31.8,30.02,SW,225,0.0,0.0,81,0.00,,,0.00,meteohub,2013-02-03 09:18:00,
2013-02-03 04:23:00,37.0,31.8,30.02,SW,225,0.0,0.0,81,0.00,,,0.00,meteohub,2013-02-03 09:23:00,
2013-02-03 04:29:00,37.2,32.0,30.02,SW,225,0.0,0.0,81,0.00,,,0.00,meteohub,2013-02-03 09:29:00,
2013-02-03 04:34:00,37.2,32.0,30.02,SW,225,0.0,0.0,81,0.00,,,0.00,meteohub,2013-02-03 09:34:00,
2013-02-03 04:39:00,37.2,32.2,30.02,SW,225,0.0,0.0,82,0.00,,,0.00,meteohub,2013-02-03 09:39:00,
2013-02-03 04:44:00,37.4,33.6,30.02,SW,225,0.0,0.0,86,0.00,,,0.00,meteohub,2013-02-03 09:44:00,
2013-02-03 04:49:00,37.4,33.6,30.02,SW,225,0.0,0.0,86,0.00,,,0.00,meteohub,2013-02-03 09:49:00,
2013-02-03 04:54:00,37.4,33.6,30.02,SW,225,0.0,0.0,86,0.00,,,0.00,meteohub,2013-02-03 09:54:00,
2013-02-03 04:59:00,37.8,34.2,30.02,SW,225,0.0,0.0,87,0.00,,,0.00,meteohub,2013-02-03 09:59:00,
2013-02-03 05:04:00,37.8,34.2,30.02,SW,225,0.0,0.0,87,0.00,,,0.00,meteohub,2013-02-03 10:04:00,
2013-02-03 05:09:00,37.9,34.3,30.02,SW,225,0.0,0.0,87,0.00,,,0.00,meteohub,2013-02-03 10:09:00,
2013-02-03 05:14:00,37.9,34.3,30.01,SW,225,0.0,0.0,87,0.00,,,0.00,meteohub,2013-02-03 10:14:00,
2013-02-03 05:20:00,37.9,34.3,30.01,SW,225,0.0,0.0,87,0.00,,,0.00,meteohub,2013-02-03 10:20:00,
2013-02-03 05:25:00,37.9,34.3,30.01,SW,225,0.0,0.0,87,0.00,,,0.00,meteohub,2013-02-03 10:25:00,
2013-02-03 05:30:00,37.9,34.3,30.01,SW,225,0.0,0.0,87,0.00,,,0.00,meteohub,2013-02-03 10:30:00,
2013-02-03 05:35:00,37.9,34.3,30.01,SW,225,0.0,0.0,87,0.00,,,0.00,meteohub,2013-02-03 10:35:00,
2013-02-03 05:40:00,38.1,34.5,30.01,SW,225,0.0,0.0,87,0.00,,,0.00,meteohub,2013-02-03 10:40:00,
2013-02-03 05:45:00,38.1,34.5,30.02,SW,225,0.0,0.0,87,0.00,,,0.00,meteohub,2013-02-03 10:45:00,
2013-02-03 05:50:00,38.1,34.5,30.02,SW,225,0.0,0.0,87,0.00,,,0.00,meteohub,2013-02-03 10:50:00,
2013-02-03 05:55:00,38.1,34.5,30.02,SW,225,0.0,0.0,87,0.00,,,0.00,meteohub,2013-02-03 10:55:00,
2013-02-03 06:01:00,38.1,34.5,30.02,SW,225,0.0,0.0,87,0.00,,,0.00,meteohub,2013-02-03 11:01:00,
2013-02-03 06:06:00,38.1,34.5,30.02,SW,225,0.0,0.0,87,0.00,,,0.00,meteohub,2013-02-03 11:06:00,
2013-02-03 06:11:00,38.1,34.5,30.02,SW,225,0.0,0.0,87,0.00,,,0.00,meteohub,2013-02-03 11:11:00,
2013-02-03 06:16:00,38.3,34.7,30.02,West,270,0.0,0.0,87,0.00,,,0.00,meteohub,2013-02-03 11:16:00,
2013-02-03 06:21:00,38.5,34.7,30.02,NW,315,0.0,0.0,86,0.00,,,0.00,meteohub,2013-02-03 11:21:00,
2013-02-03 06:26:00,38.7,34.9,30.02,NW,315,0.0,0.0,86,0.00,,,0.00,meteohub,2013-02-03 11:26:00,
2013-02-03 06:32:00,38.7,34.9,30.02,NW,315,0.0,0.0,86,0.00,,,0.00,meteohub,2013-02-03 11:32:00,
2013-02-03 06:37:00,38.7,34.9,30.02,NW,315,0.0,0.0,86,0.00,,,0.00,meteohub,2013-02-03 11:37:00,
2013-02-03 06:42:00,38.7,34.9,30.02,NW,315,0.0,0.0,86,0.00,,,0.00,meteohub,2013-02-03 11:42:00,
2013-02-03 06:47:00,38.7,34.9,30.02,NW,315,0.0,0.0,86,0.00,,,0.00,meteohub,2013-02-03 11:47:00,
2013-02-03 06:52:00,38.7,34.9,30.01,NW,315,0.0,0.0,86,0.00,,,0.00,meteohub,2013-02-03 11:52:00,
2013-02-03 06:57:00,38.7,34.9,30.02,NW,315,0.0,0.0,86,0.00,,,0.00,meteohub,2013-02-03 11:57:00,
2013-02-03 07:02:00,38.7,34.9,30.02,NW,315,0.0,0.0,86,0.00,,,0.00,meteohub,2013-02-03 12:02:00,
2013-02-03 07:07:00,38.5,34.7,30.02,NW,315,0.0,0.0,86,0.00,,,0.00,meteohub,2013-02-03 12:07:00,
2013-02-03 07:12:00,38.5,34.7,30.02,NW,315,0.0,0.0,86,0.00,,,0.00,meteohub,2013-02-03 12:12:00,
2013-02-03 07:18:00,38.5,34.7,30.03,NW,315,0.0,0.0,86,0.00,,,0.00,meteohub,2013-02-03 12:18:00,
2013-02-03 07:23:00,38.5,34.7,30.03,NW,315,0.0,0.0,86,0.00,,,0.00,meteohub,2013-02-03 12:23:00,
2013-02-03 07:28:00,38.5,34.7,30.03,NW,315,0.0,0.0,86,0.00,,,0.00,meteohub,2013-02-03 12:28:00,
2013-02-03 07:33:00,38.5,34.7,30.04,NW,315,0.0,0.0,86,0.00,,,0.00,meteohub,2013-02-03 12:33:00,
2013-02-03 07:38:00,38.5,34.7,30.03,NW,315,0.0,0.0,86,0.00,,,0.00,meteohub,2013-02-03 12:38:00,
2013-02-03 07:43:00,38.5,34.7,30.04,NW,315,0.0,0.0,86,0.00,,,0.00,meteohub,2013-02-03 12:43:00,
2013-02-03 07:48:00,38.7,34.9,30.04,NW,315,0.0,0.0,86,0.00,,,0.00,meteohub,2013-02-03 12:48:00,
2013-02-03 07:53:00,38.7,34.9,30.04,NW,315,0.0,0.0,86,0.00,,,0.00,meteohub,2013-02-03 12:53:00,
2013-02-03 07:58:00,38.8,35.1,30.04,NW,315,0.0,0.0,86,0.00,,,0.00,meteohub,2013-02-03 12:58:00,
2013-02-03 08:04:00,38.8,35.1,30.04,NW,315,0.0,0.0,86,0.00,,,0.00,meteohub,2013-02-03 13:04:00,
2013-02-03 08:09:00,38.8,35.1,30.04,West,270,0.0,0.0,86,0.00,,,0.00,meteohub,2013-02-03 13:09:00,
2013-02-03 08:14:00,38.8,35.1,30.05,West,270,0.0,0.0,86,0.00,,,0.00,meteohub,2013-02-03 13:14:00,
2013-02-03 08:19:00,38.8,35.1,30.05,West,270,0.0,0.0,86,0.00,,,0.00,meteohub,2013-02-03 13:19:00,
2013-02-03 08:24:00,38.8,34.7,30.05,WNW,293,0.0,0.0,85,0.00,,,0.00,meteohub,2013-02-03 13:24:00,
2013-02-03 08:29:00,39.6,35.1,30.05,West,270,0.0,0.0,84,0.00,,,0.00,meteohub,2013-02-03 13:29:00,
2013-02-03 08:34:00,40.6,36.1,30.05,West,270,0.0,0.0,84,0.00,,,0.00,meteohub,2013-02-03 13:34:00,
2013-02-03 08:39:00,40.6,36.0,30.04,West,270,0.0,0.0,83,0.00,,,0.00,meteohub,2013-02-03 13:39:00,
2013-02-03 08:45:00,40.8,35.8,30.05,West,270,0.0,0.0,82,0.00,,,0.00,meteohub,2013-02-03 13:45:00,
2013-02-03 08:50:00,40.6,35.2,30.04,West,270,0.0,0.0,81,0.00,,,0.00,meteohub,2013-02-03 13:50:00,
2013-02-03 08:55:00,40.6,35.2,30.04,SW,225,0.0,0.0,81,0.00,,,0.00,meteohub,2013-02-03 13:55:00,
2013-02-03 09:00:00,41.4,35.6,30.04,NW,315,0.0,0.0,80,0.00,,,0.00,meteohub,2013-02-03 14:00:00,
2013-02-03 09:05:00,42.6,36.3,30.04,NW,315,0.0,0.0,78,0.00,,,0.00,meteohub,2013-02-03 14:05:00,
2013-02-03 09:10:00,42.6,35.6,30.04,West,270,0.0,0.0,76,0.00,,,0.00,meteohub,2013-02-03 14:10:00,
2013-02-03 09:15:00,42.1,34.3,30.04,WNW,293,0.0,0.0,74,0.00,,,0.00,meteohub,2013-02-03 14:15:00,
2013-02-03 09:20:00,41.7,34.0,30.04,West,270,0.0,0.0,74,0.00,,,0.00,meteohub,2013-02-03 14:20:00,
2013-02-03 09:26:00,42.1,34.3,30.04,WNW,293,0.0,0.0,74,0.00,,,0.00,meteohub,2013-02-03 14:26:00,
2013-02-03 09:31:00,43.0,34.9,30.04,West,270,0.0,0.0,73,0.00,,,0.00,meteohub,2013-02-03 14:31:00,
2013-02-03 09:36:00,43.7,35.2,30.04,West,270,0.0,0.0,72,0.00,,,0.00,meteohub,2013-02-03 14:36:00,
2013-02-03 09:41:00,43.5,34.0,30.04,NW,315,0.0,0.0,69,0.00,,,0.00,meteohub,2013-02-03 14:41:00,
2013-02-03 09:46:00,43.3,32.7,30.04,NW,315,0.0,0.0,66,0.00,,,0.00,meteohub,2013-02-03 14:46:00,
2013-02-03 09:51:00,43.0,31.6,30.04,NW,315,0.0,0.0,64,0.00,,,0.00,meteohub,2013-02-03 14:51:00,
2013-02-03 09:56:00,44.1,32.4,30.04,NW,315,0.0,0.0,63,0.00,,,0.00,meteohub,2013-02-03 14:56:00,
2013-02-03 10:01:00,43.7,31.1,30.05,West,270,0.0,0.0,61,0.00,,,0.00,meteohub,2013-02-03 15:01:00,
2013-02-03 10:07:00,43.3,31.3,30.05,West,270,0.0,1.0,62,0.00,,,0.00,meteohub,2013-02-03 15:07:00,
2013-02-03 10:12:00,43.3,31.3,30.05,North,0,0.0,1.0,62,0.00,,,0.00,meteohub,2013-02-03 15:12:00,
2013-02-03 10:17:00,43.2,30.6,30.05,NW,315,0.0,1.0,61,0.00,,,0.00,meteohub,2013-02-03 15:17:00,
2013-02-03 10:22:00,43.0,29.3,30.05,NW,315,0.0,1.0,58,0.00,,,0.00,meteohub,2013-02-03 15:22:00,
2013-02-03 10:27:00,44.1,30.2,30.05,NW,315,0.0,1.0,58,0.00,,,0.00,meteohub,2013-02-03 15:27:00,
2013-02-03 10:33:00,44.6,29.5,30.04,NW,315,0.0,0.0,55,0.00,,,0.00,meteohub,2013-02-03 15:33:00,
2013-02-03 10:38:00,45.1,28.9,30.04,North,0,0.0,0.0,53,0.00,,,0.00,meteohub,2013-02-03 15:38:00,
2013-02-03 10:43:00,45.0,28.4,30.04,West,270,0.0,0.0,52,0.00,,,0.00,meteohub,2013-02-03 15:43:00,
2013-02-03 10:48:00,45.3,28.8,30.04,North,0,0.0,0.0,52,0.00,,,0.00,meteohub,2013-02-03 15:48:00,
2013-02-03 10:53:00,45.9,28.8,30.04,West,270,0.0,0.0,51,0.00,,,0.00,meteohub,2013-02-03 15:53:00,
2013-02-03 10:58:00,45.1,28.0,30.04,NW,315,0.0,0.0,51,0.00,,,0.00,meteohub,2013-02-03 15:58:00,
2013-02-03 11:03:00,46.2,29.1,30.04,North,0,0.0,0.0,51,0.00,,,0.00,meteohub,2013-02-03 16:03:00,
2013-02-03 11:08:00,46.0,27.9,30.03,West,270,0.0,0.0,49,0.00,,,0.00,meteohub,2013-02-03 16:08:00,
2013-02-03 11:13:00,45.5,27.5,30.03,NW,315,0.0,0.0,49,0.00,,,0.00,meteohub,2013-02-03 16:13:00,
2013-02-03 11:18:00,45.3,27.3,30.03,West,270,0.0,0.0,49,0.00,,,0.00,meteohub,2013-02-03 16:18:00,
2013-02-03 11:23:00,45.9,28.2,30.03,NW,315,0.0,0.0,50,0.00,,,0.00,meteohub,2013-02-03 16:23:00,
2013-02-03 11:28:00,46.2,27.7,30.02,WNW,293,0.0,0.0,48,0.00,,,0.00,meteohub,2013-02-03 16:28:00,
2013-02-03 11:33:00,46.2,27.1,30.02,NW,315,0.0,0.0,47,0.00,,,0.00,meteohub,2013-02-03 16:33:00,
2013-02-03 11:39:00,46.2,27.1,30.02,West,270,0.0,0.0,47,0.00,,,0.00,meteohub,2013-02-03 16:39:00,
2013-02-03 11:44:00,46.6,27.9,30.02,SW,225,0.0,0.0,48,0.00,,,0.00,meteohub,2013-02-03 16:44:00,
2013-02-03 11:49:00,46.2,27.7,30.02,West,270,0.0,0.0,48,0.00,,,0.00,meteohub,2013-02-03 16:49:00,
2013-02-03 11:54:00,45.7,26.6,30.02,West,270,0.0,0.0,47,0.00,,,0.00,meteohub,2013-02-03 16:54:00,
2013-02-03 11:59:00,46.4,27.9,30.01,NW,315,0.0,0.0,48,0.00,,,0.00,meteohub,2013-02-03 16:59:00,
2013-02-03 12:04:00,46.8,28.0,30.01,NW,315,4.0,0.0,48,0.00,,,0.00,meteohub,2013-02-03 17:04:00,
2013-02-03 12:09:00,46.4,27.9,30.01,West,270,0.0,4.0,48,0.00,,,0.00,meteohub,2013-02-03 17:09:00,
2013-02-03 12:14:00,46.0,27.5,30.01,West,270,0.0,4.0,48,0.00,,,0.00,meteohub,2013-02-03 17:14:00,
2013-02-03 12:19:00,45.9,26.8,30.01,NW,315,0.0,4.0,47,0.00,,,0.00,meteohub,2013-02-03 17:19:00,
2013-02-03 12:25:00,45.5,27.0,30.01,West,270,0.0,0.0,48,0.00,,,0.00,meteohub,2013-02-03 17:25:00,
2013-02-03 12:30:00,45.5,27.5,30.01,NW,315,0.0,0.0,49,0.00,,,0.00,meteohub,2013-02-03 17:30:00,
2013-02-03 12:35:00,45.9,26.8,30.00,West,270,0.0,0.0,47,0.00,,,0.00,meteohub,2013-02-03 17:35:00,
2013-02-03 12:40:00,45.7,26.6,30.00,West,270,0.0,0.0,47,0.00,,,0.00,meteohub,2013-02-03 17:40:00,
2013-02-03 12:45:00,46.4,27.3,30.00,NW,315,0.0,0.0,47,0.00,,,0.00,meteohub,2013-02-03 17:45:00,
2013-02-03 12:50:00,48.4,28.0,29.99,NW,315,0.0,0.0,45,0.00,,,0.00,meteohub,2013-02-03 17:50:00,
2013-02-03 12:55:00,48.9,28.0,29.99,West,270,0.0,0.0,44,0.00,,,0.00,meteohub,2013-02-03 17:55:00,
2013-02-03 13:00:00,48.2,27.3,29.99,NW,315,0.0,0.0,44,0.00,,,0.00,meteohub,2013-02-03 18:00:00,
2013-02-03 13:05:00,48.0,27.7,29.98,SW,225,0.0,0.0,45,0.00,,,0.00,meteohub,2013-02-03 18:05:00,
2013-02-03 13:11:00,47.5,27.1,29.98,WSW,248,0.0,0.0,45,0.00,,,0.00,meteohub,2013-02-03 18:11:00,
2013-02-03 13:16:00,47.5,27.1,29.98,NW,315,0.0,0.0,45,0.00,,,0.00,meteohub,2013-02-03 18:16:00,
2013-02-03 13:21:00,48.0,27.7,29.98,West,270,0.0,0.0,45,0.00,,,0.00,meteohub,2013-02-03 18:21:00,
2013-02-03 13:26:00,48.9,28.0,29.97,SW,225,0.0,0.0,44,0.00,,,0.00,meteohub,2013-02-03 18:26:00,
2013-02-03 13:31:00,49.3,27.7,29.96,West,270,0.0,0.0,43,0.00,,,0.00,meteohub,2013-02-03 18:31:00,
2013-02-03 13:36:00,50.9,26.2,29.96,South,180,0.0,0.0,38,0.00,,,0.00,meteohub,2013-02-03 18:36:00,
2013-02-03 13:41:00,50.9,25.5,29.96,West,270,0.0,0.0,37,0.00,,,0.00,meteohub,2013-02-03 18:41:00,
2013-02-03 13:46:00,50.4,25.7,29.96,SW,225,0.0,0.0,38,0.00,,,0.00,meteohub,2013-02-03 18:46:00,
2013-02-03 13:51:00,50.2,25.0,29.96,North,0,1.0,0.0,37,0.00,,,0.00,meteohub,2013-02-03 18:51:00,
2013-02-03 13:57:00,48.9,24.4,29.96,West,270,0.0,1.0,38,0.00,,,0.00,meteohub,2013-02-03 18:57:00,
2013-02-03 14:02:00,49.3,24.8,29.96,SW,225,0.0,1.0,38,0.00,,,0.00,meteohub,2013-02-03 19:02:00,
2013-02-03 14:07:00,48.9,23.7,29.96,NW,315,0.0,1.0,37,0.00,,,0.00,meteohub,2013-02-03 19:07:00,
2013-02-03 14:12:00,48.2,23.2,29.96,NW,315,0.0,0.0,37,0.00,,,0.00,meteohub,2013-02-03 19:12:00,
2013-02-03 14:17:00,48.7,24.8,29.95,NW,315,0.0,0.0,39,0.00,,,0.00,meteohub,2013-02-03 19:17:00,
2013-02-03 14:22:00,48.7,24.3,29.95,NW,315,0.0,0.0,38,0.00,,,0.00,meteohub,2013-02-03 19:22:00,
2013-02-03 14:27:00,48.6,24.8,29.95,NW,315,0.0,0.0,39,0.00,,,0.00,meteohub,2013-02-03 19:27:00,
2013-02-03 14:32:00,48.6,24.1,29.96,WNW,293,0.0,0.0,38,0.00,,,0.00,meteohub,2013-02-03 19:32:00,
2013-02-03 14:38:00,48.2,23.7,29.96,NW,315,0.0,0.0,38,0.00,,,0.00,meteohub,2013-02-03 19:38:00,
2013-02-03 14:43:00,48.2,23.7,29.96,NW,315,0.0,0.0,38,0.00,,,0.00,meteohub,2013-02-03 19:43:00,
2013-02-03 14:48:00,48.0,24.8,29.96,NW,315,0.0,0.0,40,0.00,,,0.00,meteohub,2013-02-03 19:48:00,
2013-02-03 14:53:00,48.2,25.0,29.95,West,270,0.0,0.0,40,0.00,,,0.00,meteohub,2013-02-03 19:53:00,
2013-02-03 14:58:00,48.2,24.4,29.95,NW,315,0.0,0.0,39,0.00,,,0.00,meteohub,2013-02-03 19:58:00,
2013-02-03 15:03:00,48.4,24.6,29.95,NW,315,0.0,0.0,39,0.00,,,0.00,meteohub,2013-02-03 20:03:00,
2013-02-03 15:08:00,48.6,25.3,29.95,NW,315,0.0,0.0,40,0.00,,,0.00,meteohub,2013-02-03 20:08:00,
2013-02-03 15:13:00,48.7,25.5,29.95,NW,315,0.0,0.0,40,0.00,,,0.00,meteohub,2013-02-03 20:13:00,
2013-02-03 15:19:00,48.7,24.8,29.95,NW,315,0.0,0.0,39,0.00,,,0.00,meteohub,2013-02-03 20:19:00,
2013-02-03 15:24:00,48.7,25.5,29.95,NW,315,0.0,0.0,40,0.00,,,0.00,meteohub,2013-02-03 20:24:00,
2013-02-03 15:29:00,48.9,25.7,29.95,NW,315,0.0,0.0,40,0.00,,,0.00,meteohub,2013-02-03 20:29:00,
2013-02-03 15:34:00,49.1,25.9,29.95,NW,315,0.0,0.0,40,0.00,,,0.00,meteohub,2013-02-03 20:34:00,
2013-02-03 15:39:00,48.9,25.7,29.95,NW,315,0.0,0.0,40,0.00,,,0.00,meteohub,2013-02-03 20:39:00,
2013-02-03 15:44:00,48.9,25.7,29.96,NW,315,0.0,0.0,40,0.00,,,0.00,meteohub,2013-02-03 20:44:00,
2013-02-03 15:50:00,48.9,25.7,29.96,WNW,293,0.0,0.0,40,0.00,,,0.00,meteohub,2013-02-03 20:50:00,
2013-02-03 15:55:00,48.7,25.5,29.96,West,270,0.0,0.0,40,0.00,,,0.00,meteohub,2013-02-03 20:55:00,
2013-02-03 16:00:00,48.7,25.5,29.95,SW,225,0.0,0.0,40,0.00,,,0.00,meteohub,2013-02-03 21:00:00,
2013-02-03 16:05:00,48.9,26.2,29.96,South,180,0.0,0.0,41,0.00,,,0.00,meteohub,2013-02-03 21:05:00,
2013-02-03 16:10:00,49.1,25.9,29.96,NW,315,0.0,0.0,40,0.00,,,0.00,meteohub,2013-02-03 21:10:00,
2013-02-03 16:15:00,49.1,25.9,29.96,South,180,0.0,0.0,40,0.00,,,0.00,meteohub,2013-02-03 21:15:00,
2013-02-03 16:20:00,49.3,25.3,29.96,SSE,158,0.0,0.0,39,0.00,,,0.00,meteohub,2013-02-03 21:20:00,
2013-02-03 16:26:00,49.6,26.2,29.96,South,180,0.0,0.0,40,0.00,,,0.00,meteohub,2013-02-03 21:26:00,
2013-02-03 16:31:00,50.2,25.5,29.96,South,180,0.0,0.0,38,0.00,,,0.00,meteohub,2013-02-03 21:31:00,
2013-02-03 16:36:00,50.7,26.1,29.96,South,180,0.0,0.0,38,0.00,,,0.00,meteohub,2013-02-03 21:36:00,
2013-02-03 16:41:00,50.5,25.2,29.96,WNW,293,0.0,0.0,37,0.00,,,0.00,meteohub,2013-02-03 21:41:00,
2013-02-03 16:46:00,50.2,25.5,29.96,WNW,293,0.0,0.0,38,0.00,,,0.00,meteohub,2013-02-03 21:46:00,
2013-02-03 16:51:00,50.0,25.3,29.96,WNW,293,0.0,0.0,38,0.00,,,0.00,meteohub,2013-02-03 21:51:00,
2013-02-03 16:57:00,49.5,25.5,29.96,West,270,0.0,0.0,39,0.00,,,0.00,meteohub,2013-02-03 21:57:00,
2013-02-03 17:02:00,49.1,25.9,29.96,West,270,0.0,0.0,40,0.00,,,0.00,meteohub,2013-02-03 22:02:00,
2013-02-03 17:07:00,49.1,26.4,29.96,West,270,0.0,0.0,41,0.00,,,0.00,meteohub,2013-02-03 22:07:00,
2013-02-03 17:12:00,48.9,26.8,29.97,West,270,0.0,0.0,42,0.00,,,0.00,meteohub,2013-02-03 22:12:00,
2013-02-03 17:17:00,48.9,26.8,29.97,West,270,0.0,0.0,42,0.00,,,0.00,meteohub,2013-02-03 22:17:00,
2013-02-03 17:22:00,48.7,27.3,29.97,West,270,0.0,0.0,43,0.00,,,0.00,meteohub,2013-02-03 22:22:00,
2013-02-03 17:27:00,48.7,27.9,29.98,West,270,0.0,0.0,44,0.00,,,0.00,meteohub,2013-02-03 22:27:00,
2013-02-03 17:32:00,48.6,27.7,29.98,West,270,0.0,0.0,44,0.00,,,0.00,meteohub,2013-02-03 22:32:00,
2013-02-03 17:37:00,48.6,27.7,29.99,West,270,0.0,0.0,44,0.00,,,0.00,meteohub,2013-02-03 22:37:00,
2013-02-03 17:42:00,48.4,27.5,29.99,West,270,0.0,0.0,44,0.00,,,0.00,meteohub,2013-02-03 22:42:00,
2013-02-03 17:47:00,48.4,27.5,29.99,West,270,0.0,0.0,44,0.00,,,0.00,meteohub,2013-02-03 22:47:00,
2013-02-03 17:53:00,48.2,27.3,29.99,West,270,0.0,0.0,44,0.00,,,0.00,meteohub,2013-02-03 22:53:00,
2013-02-03 17:58:00,48.2,26.2,29.99,WNW,293,0.0,0.0,42,0.00,,,0.00,meteohub,2013-02-03 22:58:00,
2013-02-03 18:03:00,47.8,26.4,29.99,WNW,293,0.0,0.0,43,0.00,,,0.00,meteohub,2013-02-03 23:03:00,
2013-02-03 18:08:00,47.7,26.2,30.00,NW,315,0.0,0.0,43,0.00,,,0.00,meteohub,2013-02-03 23:08:00,
2013-02-03 18:13:00,47.5,26.6,30.00,NW,315,0.0,0.0,44,0.00,,,0.00,meteohub,2013-02-03 23:13:00,
2013-02-03 18:18:00,47.1,26.2,30.00,West,270,0.0,0.0,44,0.00,,,0.00,meteohub,2013-02-03 23:18:00,
2013-02-03 18:23:00,46.9,26.2,30.00,NW,315,0.0,0.0,44,0.00,,,0.00,meteohub,2013-02-03 23:23:00,
2013-02-03 18:28:00,46.9,25.5,30.01,West,270,0.0,0.0,43,0.00,,,0.00,meteohub,2013-02-03 23:28:00,
2013-02-03 18:34:00,46.8,25.5,30.01,West,270,0.0,0.0,43,0.00,,,0.00,meteohub,2013-02-03 23:34:00,
2013-02-03 18:39:00,46.6,25.3,30.02,West,270,0.0,0.0,43,0.00,,,0.00,meteohub,2013-02-03 23:39:00,
2013-02-03 18:44:00,46.2,24.4,30.02,West,270,0.0,0.0,42,0.00,,,0.00,meteohub,2013-02-03 23:44:00,
2013-02-03 18:49:00,46.0,23.7,30.02,NW,315,0.0,0.0,41,0.00,,,0.00,meteohub,2013-02-03 23:49:00,
2013-02-03 18:54:00,45.9,23.5,30.02,NW,315,0.0,0.0,41,0.00,,,0.00,meteohub,2013-02-03 23:54:00,
2013-02-03 18:59:00,45.7,23.4,30.02,NW,315,0.0,0.0,41,0.00,,,0.00,meteohub,2013-02-03 23:59:00,
2013-02-03 19:04:00,45.5,23.2,30.03,West,270,0.0,0.0,41,0.00,,,0.00,meteohub,2013-02-04 00:04:00,
2013-02-03 19:09:00,45.1,23.4,30.03,West,270,0.0,0.0,42,0.00,,,0.00,meteohub,2013-02-04 00:09:00,
2013-02-03 19:14:00,45.0,23.2,30.03,NW,315,0.0,0.0,42,0.00,,,0.00,meteohub,2013-02-04 00:14:00,
2013-02-03 19:19:00,44.8,23.0,30.03,NW,315,0.0,0.0,42,0.00,,,0.00,meteohub,2013-02-04 00:19:00,
2013-02-03 19:25:00,44.4,23.4,30.03,NW,315,0.0,0.0,43,0.00,,,0.00,meteohub,2013-02-04 00:25:00,
2013-02-03 19:30:00,44.2,23.7,30.03,NW,315,0.0,0.0,44,0.00,,,0.00,meteohub,2013-02-04 00:30:00,
2013-02-03 19:35:00,44.1,23.5,30.03,NW,315,0.0,0.0,44,0.00,,,0.00,meteohub,2013-02-04 00:35:00,
2013-02-03 19:40:00,43.9,23.4,30.04,NW,315,0.0,0.0,44,0.00,,,0.00,meteohub,2013-02-04 00:40:00,
2013-02-03 19:45:00,43.5,23.0,30.04,NW,315,0.0,0.0,44,0.00,,,0.00,meteohub,2013-02-04 00:45:00,
2013-02-03 19:50:00,43.3,23.4,30.04,NW,315,0.0,0.0,45,0.00,,,0.00,meteohub,2013-02-04 00:50:00,
2013-02-03 19:55:00,42.8,23.4,30.04,NW,315,0.0,0.0,46,0.00,,,0.00,meteohub,2013-02-04 00:55:00,
2013-02-03 20:00:00,42.4,24.1,30.04,NW,315,0.0,0.0,48,0.00,,,0.00,meteohub,2013-02-04 01:00:00,
2013-02-03 20:05:00,42.1,23.7,30.04,NW,315,0.0,0.0,48,0.00,,,0.00,meteohub,2013-02-04 01:05:00,
2013-02-03 20:10:00,41.7,24.4,30.04,NW,315,0.0,0.0,50,0.00,,,0.00,meteohub,2013-02-04 01:10:00,
2013-02-03 20:15:00,41.4,24.6,30.04,NW,315,0.0,0.0,51,0.00,,,0.00,meteohub,2013-02-04 01:15:00,
2013-02-03 20:20:00,41.0,24.3,30.04,NW,315,0.0,0.0,51,0.00,,,0.00,meteohub,2013-02-04 01:20:00,
2013-02-03 20:25:00,41.0,24.8,30.05,NW,315,0.0,0.0,52,0.00,,,0.00,meteohub,2013-02-04 01:25:00,
2013-02-03 20:31:00,41.0,24.3,30.05,NW,315,0.0,0.0,51,0.00,,,0.00,meteohub,2013-02-04 01:31:00,
2013-02-03 20:36:00,41.4,24.1,30.06,NW,315,0.0,0.0,50,0.00,,,0.00,meteohub,2013-02-04 01:36:00,
2013-02-03 20:41:00,41.7,23.9,30.06,NW,315,0.0,0.0,49,0.00,,,0.00,meteohub,2013-02-04 01:41:00,
2013-02-03 20:46:00,41.7,23.9,30.05,NW,315,0.0,0.0,49,0.00,,,0.00,meteohub,2013-02-04 01:46:00,
2013-02-03 20:51:00,41.7,23.9,30.05,NW,315,0.0,0.0,49,0.00,,,0.00,meteohub,2013-02-04 01:51:00,
2013-02-03 20:56:00,41.5,24.3,30.06,West,270,0.0,0.0,50,0.00,,,0.00,meteohub,2013-02-04 01:56:00,
2013-02-03 21:02:00,41.5,24.3,30.06,West,270,0.0,0.0,50,0.00,,,0.00,meteohub,2013-02-04 02:02:00,
2013-02-03 21:07:00,41.5,24.3,30.06,West,270,0.0,0.0,50,0.00,,,0.00,meteohub,2013-02-04 02:07:00,
2013-02-03 21:12:00,41.4,24.1,30.06,West,270,0.0,0.0,50,0.00,,,0.00,meteohub,2013-02-04 02:12:00,
2013-02-03 21:17:00,41.2,23.9,30.06,West,270,0.0,0.0,50,0.00,,,0.00,meteohub,2013-02-04 02:17:00,
2013-02-03 21:22:00,41.0,23.7,30.06,NW,315,0.0,0.0,50,0.00,,,0.00,meteohub,2013-02-04 02:22:00,
2013-02-03 21:27:00,40.8,24.6,30.06,West,270,0.0,0.0,52,0.00,,,0.00,meteohub,2013-02-04 02:27:00,
2013-02-03 21:32:00,40.6,24.4,30.06,West,270,0.0,0.0,52,0.00,,,0.00,meteohub,2013-02-04 02:32:00,
2013-02-03 21:37:00,40.6,24.8,30.06,West,270,0.0,0.0,53,0.00,,,0.00,meteohub,2013-02-04 02:37:00,
2013-02-03 21:43:00,40.5,24.6,30.07,West,270,0.0,0.0,53,0.00,,,0.00,meteohub,2013-02-04 02:43:00,
2013-02-03 21:48:00,40.3,25.0,30.07,NW,315,0.0,0.0,54,0.00,,,0.00,meteohub,2013-02-04 02:48:00,
2013-02-03 21:53:00,40.3,25.0,30.07,West,270,0.0,0.0,54,0.00,,,0.00,meteohub,2013-02-04 02:53:00,
2013-02-03 21:58:00,40.1,24.8,30.06,West,270,0.0,0.0,54,0.00,,,0.00,meteohub,2013-02-04 02:58:00,
2013-02-03 22:04:00,39.9,24.6,30.07,West,270,0.0,0.0,54,0.00,,,0.00,meteohub,2013-02-04 03:04:00,
2013-02-03 22:09:00,39.6,24.3,30.06,West,270,0.0,0.0,54,0.00,,,0.00,meteohub,2013-02-04 03:09:00,
2013-02-03 22:14:00,39.4,24.1,30.07,West,270,0.0,0.0,54,0.00,,,0.00,meteohub,2013-02-04 03:14:00,
2013-02-03 22:19:00,38.8,24.4,30.07,West,270,0.0,0.0,56,0.00,,,0.00,meteohub,2013-02-04 03:19:00,
2013-02-03 22:24:00,38.1,23.9,30.07,West,270,0.0,0.0,56,0.00,,,0.00,meteohub,2013-02-04 03:24:00,
2013-02-03 22:29:00,37.6,23.7,30.07,West,270,0.0,0.0,57,0.00,,,0.00,meteohub,2013-02-04 03:29:00,
2013-02-03 22:34:00,37.0,21.6,30.07,West,270,0.0,0.0,53,0.00,,,0.00,meteohub,2013-02-04 03:34:00,
2013-02-03 22:39:00,36.5,21.4,30.08,West,270,0.0,0.0,54,0.00,,,0.00,meteohub,2013-02-04 03:39:00,
2013-02-03 22:44:00,36.1,21.0,30.07,West,270,0.0,0.0,54,0.00,,,0.00,meteohub,2013-02-04 03:44:00,
2013-02-03 22:50:00,35.8,21.2,30.07,West,270,0.0,0.0,55,0.00,,,0.00,meteohub,2013-02-04 03:50:00,
2013-02-03 22:55:00,35.4,21.7,30.07,West,270,0.0,0.0,57,0.00,,,0.00,meteohub,2013-02-04 03:55:00,
2013-02-03 23:00:00,35.2,22.3,30.08,West,270,0.0,0.0,59,0.00,,,0.00,meteohub,2013-02-04 04:00:00,
2013-02-03 23:05:00,35.1,22.1,30.08,West,270,0.0,0.0,59,0.00,,,0.00,meteohub,2013-02-04 04:05:00,
2013-02-03 23:10:00,34.5,22.1,30.08,West,270,0.0,0.0,60,0.00,,,0.00,meteohub,2013-02-04 04:10:00,
2013-02-03 23:15:00,34.2,21.7,30.08,West,270,0.0,0.0,60,0.00,,,0.00,meteohub,2013-02-04 04:15:00,
2013-02-03 23:20:00,33.6,21.9,30.08,West,270,0.0,0.0,62,0.00,,,0.00,meteohub,2013-02-04 04:20:00,
2013-02-03 23:25:00,33.4,22.3,30.08,West,270,0.0,0.0,63,0.00,,,0.00,meteohub,2013-02-04 04:25:00,
2013-02-03 23:30:00,33.1,22.3,30.07,West,270,0.0,0.0,64,0.00,,,0.00,meteohub,2013-02-04 04:30:00,
2013-02-03 23:35:00,33.1,22.3,30.08,West,270,0.0,0.0,64,0.00,,,0.00,meteohub,2013-02-04 04:35:00,
2013-02-03 23:41:00,32.9,22.5,30.08,West,270,0.0,0.0,65,0.00,,,0.00,meteohub,2013-02-04 04:41:00,
2013-02-03 23:46:00,32.7,22.6,30.08,West,270,0.0,0.0,66,0.00,,,0.00,meteohub,2013-02-04 04:46:00,
2013-02-03 23:51:00,32.7,22.6,30.08,West,270,0.0,0.0,66,0.00,,,0.00,meteohub,2013-02-04 04:51:00,
2013-02-03 23:56:00,32.4,22.3,30.08,West,270,0.0,0.0,66,0.00,,,0.00,meteohub,2013-02-04 04:56:00,